createdAt,value
2018-09-28T00:00:45.563Z,99.90
2018-09-28T00:03:17.206Z,99.90
2018-09-28T00:05:48.555Z,99.90
2018-09-28T00:08:19.900Z,99.90
2018-09-28T00:10:51.081Z,99.90
2018-09-28T00:13:22.338Z,99.90
2018-09-28T00:15:53.500Z,99.90
2018-09-28T00:18:24.948Z,99.90
2018-09-28T00:20:56.252Z,99.90
2018-09-28T00:23:27.253Z,99.90
2018-09-28T00:25:58.476Z,99.90
2018-09-28T00:28:29.823Z,99.90
2018-09-28T00:31:01.020Z,99.90
2018-09-28T00:33:32.267Z,99.90
2018-09-28T00:36:03.407Z,99.90
2018-09-28T00:38:34.619Z,99.90
2018-09-28T00:41:05.799Z,99.90
2018-09-28T00:43:37.147Z,99.90
2018-09-28T00:46:08.396Z,99.90
2018-09-28T00:48:40.112Z,99.90
2018-09-28T00:51:11.324Z,99.90
2018-09-28T00:53:42.747Z,99.90
2018-09-28T00:56:14.128Z,99.90
2018-09-28T00:58:45.309Z,99.90
2018-09-28T01:01:16.307Z,99.90
2018-09-28T01:03:47.295Z,99.90
2018-09-28T01:06:18.467Z,99.90
2018-09-28T01:08:49.678Z,99.90
2018-09-28T01:11:20.631Z,99.90
2018-09-28T01:13:52.535Z,99.90
2018-09-28T01:16:23.670Z,99.90
2018-09-28T01:18:57.324Z,99.90
2018-09-28T01:21:28.579Z,99.90
2018-09-28T01:23:59.909Z,99.90
2018-09-28T01:26:31.172Z,99.90
2018-09-28T01:29:02.460Z,99.90
2018-09-28T01:31:33.558Z,99.90
2018-09-28T01:34:04.745Z,99.90
2018-09-28T01:36:36.212Z,99.90
2018-09-28T01:39:08.776Z,99.90
2018-09-28T01:41:40.240Z,99.90
2018-09-28T01:44:11.502Z,99.90
2018-09-28T01:46:42.883Z,99.90
2018-09-28T01:49:14.271Z,99.90
2018-09-28T01:51:45.927Z,99.90
2018-09-28T01:54:17.271Z,99.90
2018-09-28T01:56:48.420Z,99.90
2018-09-28T01:59:19.843Z,99.90
2018-09-28T02:01:51.013Z,99.90
2018-09-28T02:04:22.372Z,99.90
2018-09-28T02:06:53.585Z,99.90
2018-09-28T02:09:24.805Z,99.90
2018-09-28T02:11:56.151Z,99.90
2018-09-28T02:14:27.363Z,99.90
2018-09-28T02:16:58.531Z,99.90
2018-09-28T02:19:29.948Z,99.90
2018-09-28T02:22:01.116Z,99.90
2018-09-28T02:24:32.500Z,99.90
2018-09-28T02:27:03.706Z,99.90
2018-09-28T02:29:34.994Z,99.90
2018-09-28T02:32:06.433Z,99.90
2018-09-28T02:34:37.456Z,99.90
2018-09-28T02:37:08.937Z,99.90
2018-09-28T02:39:40.223Z,99.90
2018-09-28T02:42:11.430Z,99.90
2018-09-28T02:44:42.622Z,99.90
2018-09-28T02:47:13.659Z,99.90
2018-09-28T02:49:45.013Z,99.90
2018-09-28T02:52:16.456Z,99.90
2018-09-28T02:54:47.825Z,99.90
2018-09-28T02:57:19.205Z,99.90
2018-09-28T02:59:50.463Z,99.90
2018-09-28T03:02:21.563Z,99.90
2018-09-28T03:04:52.592Z,99.90
2018-09-28T03:07:24.628Z,99.90
2018-09-28T03:09:55.907Z,99.90
2018-09-28T03:12:27.120Z,99.90
2018-09-28T03:14:58.291Z,99.90
2018-09-28T03:17:29.497Z,99.90
2018-09-28T03:20:00.890Z,99.90
2018-09-28T03:22:32.130Z,99.90
2018-09-28T03:25:03.549Z,99.90
2018-09-28T03:27:34.900Z,99.90
2018-09-28T03:30:07.272Z,99.90
2018-09-28T03:32:38.418Z,99.90
2018-09-28T03:35:09.643Z,99.90
2018-09-28T03:37:41.010Z,99.90
2018-09-28T03:40:11.992Z,99.90
2018-09-28T03:42:43.195Z,99.90
2018-09-28T03:45:14.873Z,99.90
2018-09-28T03:47:48.351Z,99.90
2018-09-28T03:50:19.854Z,99.90
2018-09-28T03:52:50.891Z,99.90
2018-09-28T03:55:22.393Z,99.90
2018-09-28T03:57:53.951Z,99.90
2018-09-28T04:00:25.336Z,99.90
2018-09-28T04:02:56.720Z,99.90
2018-09-28T04:05:28.059Z,99.90
2018-09-28T04:07:59.707Z,99.90
2018-09-28T04:10:30.831Z,99.90
2018-09-28T04:13:02.500Z,99.90
2018-09-28T04:15:33.788Z,99.90
2018-09-28T04:18:05.009Z,99.90
2018-09-28T04:20:37.424Z,99.90
2018-09-28T04:23:08.740Z,99.90
2018-09-28T04:25:40.003Z,99.90
2018-09-28T04:28:11.215Z,99.90
2018-09-28T04:30:42.443Z,99.90
2018-09-28T04:33:13.692Z,99.90
2018-09-28T04:35:45.000Z,99.90
2018-09-28T04:38:16.293Z,99.90
2018-09-28T04:40:47.728Z,99.90
2018-09-28T04:43:19.088Z,99.90
2018-09-28T04:45:50.639Z,99.90
2018-09-28T04:48:21.851Z,99.90
2018-09-28T04:50:52.828Z,99.90
2018-09-28T04:53:24.023Z,99.90
2018-09-28T04:55:55.220Z,99.90
2018-09-28T04:58:26.426Z,99.90
2018-09-28T05:00:57.466Z,99.90
2018-09-28T05:03:28.804Z,99.90
2018-09-28T05:05:59.795Z,99.90
2018-09-28T05:08:31.054Z,99.90
2018-09-28T05:11:02.662Z,99.90
2018-09-28T05:13:33.892Z,99.90
2018-09-28T05:16:05.463Z,99.90
2018-09-28T05:18:36.542Z,99.90
2018-09-28T05:21:07.748Z,99.90
2018-09-28T05:23:39.150Z,99.90
2018-09-28T05:26:11.011Z,99.90
2018-09-28T05:28:42.102Z,99.90
2018-09-28T05:31:13.360Z,99.90
2018-09-28T05:33:44.642Z,99.90
2018-09-28T05:36:15.847Z,99.90
2018-09-28T05:38:46.848Z,99.90
2018-09-28T05:41:18.039Z,99.90
2018-09-28T05:43:49.252Z,99.90
2018-09-28T05:46:20.725Z,99.90
2018-09-28T05:48:51.813Z,99.90
2018-09-28T05:51:23.104Z,99.90
2018-09-28T05:53:54.403Z,99.90
2018-09-28T05:56:25.609Z,99.90
2018-09-28T05:59:02.034Z,99.90
2018-09-28T06:01:38.090Z,99.90
2018-09-28T06:04:14.096Z,99.90
2018-09-28T06:06:45.432Z,99.90
2018-09-28T06:09:16.527Z,99.90
2018-09-28T06:11:47.818Z,99.90
2018-09-28T06:14:19.021Z,99.90
2018-09-28T06:16:50.369Z,99.90
2018-09-28T06:19:21.943Z,99.90
2018-09-28T06:21:53.236Z,99.90
2018-09-28T06:24:24.998Z,99.90
2018-09-28T06:26:56.199Z,99.90
2018-09-28T06:29:27.422Z,99.90
2018-09-28T06:31:59.082Z,99.90
2018-09-28T06:34:30.426Z,99.90
2018-09-28T06:37:05.111Z,99.90
2018-09-28T06:39:36.110Z,99.90
2018-09-28T06:42:07.387Z,99.90
2018-09-28T06:44:38.766Z,99.90
2018-09-28T06:47:10.257Z,99.90
2018-09-28T06:49:41.279Z,99.90
2018-09-28T06:52:12.653Z,99.90
2018-09-28T06:54:43.823Z,99.90
2018-09-28T06:57:15.020Z,99.90
2018-09-28T06:59:46.085Z,99.90
2018-09-28T07:02:17.466Z,99.90
2018-09-28T07:04:48.831Z,99.90
2018-09-28T07:07:20.567Z,99.90
2018-09-28T07:09:51.766Z,99.90
2018-09-28T07:12:22.978Z,99.90
2018-09-28T07:14:54.162Z,99.90
2018-09-28T07:17:25.385Z,99.90
2018-09-28T07:19:56.595Z,99.90
2018-09-28T07:22:27.946Z,99.90
2018-09-28T07:24:59.187Z,99.90
2018-09-28T07:27:30.392Z,99.90
2018-09-28T07:30:01.538Z,99.90
2018-09-28T07:32:32.903Z,99.90
2018-09-28T07:35:04.179Z,99.90
2018-09-28T07:37:35.341Z,99.90
2018-09-28T07:40:06.519Z,99.90
2018-09-28T07:42:37.665Z,99.90
2018-09-28T07:45:09.399Z,99.90
2018-09-28T07:47:40.720Z,99.90
2018-09-28T07:50:12.084Z,99.90
2018-09-28T07:52:43.494Z,99.90
2018-09-28T07:55:14.818Z,99.90
2018-09-28T07:57:45.993Z,99.90
2018-09-28T08:00:17.004Z,99.90
2018-09-28T08:02:48.376Z,99.90
2018-09-28T08:05:19.603Z,99.90
2018-09-28T08:07:50.947Z,99.90
2018-09-28T08:10:22.157Z,99.90
2018-09-28T08:12:53.645Z,99.90
2018-09-28T08:15:29.671Z,99.90
2018-09-28T08:18:00.717Z,99.90
2018-09-28T08:20:32.159Z,99.90
2018-09-28T08:23:03.252Z,99.90
2018-09-28T08:25:34.613Z,99.90
2018-09-28T08:28:06.079Z,99.90
2018-09-28T08:30:37.761Z,99.90
2018-09-28T08:33:08.752Z,99.90
2018-09-28T08:35:40.232Z,99.90
2018-09-28T08:38:11.539Z,99.90
2018-09-28T08:40:42.755Z,99.90
2018-09-28T08:43:13.747Z,99.90
2018-09-28T08:45:44.920Z,99.90
2018-09-28T08:48:16.115Z,99.90
2018-09-28T08:50:47.311Z,99.90
2018-09-28T08:53:18.303Z,99.90
2018-09-28T08:55:49.423Z,99.90
2018-09-28T08:58:21.100Z,99.90
2018-09-28T09:00:52.120Z,99.90
2018-09-28T09:03:23.455Z,99.90
2018-09-28T09:05:54.683Z,99.90
2018-09-28T09:08:25.674Z,99.90
2018-09-28T09:10:57.126Z,99.90
2018-09-28T09:13:28.234Z,99.90
2018-09-28T09:16:00.095Z,99.90
2018-09-28T09:18:31.392Z,99.90
2018-09-28T09:21:02.613Z,99.90
2018-09-28T09:23:33.570Z,99.90
2018-09-28T09:26:04.616Z,99.90
2018-09-28T09:28:35.817Z,99.90
2018-09-28T09:31:07.277Z,99.90
2018-09-28T09:33:38.376Z,99.90
2018-09-28T09:36:09.830Z,99.90
2018-09-28T09:38:40.952Z,99.90
2018-09-28T09:41:12.361Z,99.90
2018-09-28T09:43:43.753Z,99.90
2018-09-28T09:46:15.522Z,99.90
2018-09-28T09:48:46.471Z,99.90
2018-09-28T09:51:17.489Z,99.90
2018-09-28T09:53:48.691Z,99.90
2018-09-28T09:56:20.142Z,99.90
2018-09-28T09:58:51.598Z,99.90
2018-09-28T10:01:27.597Z,99.90
2018-09-28T10:04:02.895Z,99.90
2018-09-28T10:06:37.765Z,99.90
2018-09-28T10:09:14.131Z,99.90
2018-09-28T10:11:45.323Z,99.90
2018-09-28T10:14:16.314Z,99.90
2018-09-28T10:16:46.952Z,99.90
2018-09-28T10:19:18.199Z,99.90
2018-09-28T10:21:48.800Z,99.90
2018-09-28T10:24:19.521Z,99.90
2018-09-28T10:26:50.215Z,99.90
2018-09-28T10:29:21.382Z,99.90
2018-09-28T10:31:52.545Z,99.90
2018-09-28T10:34:23.823Z,99.90
2018-09-28T10:36:55.086Z,99.90
2018-09-28T10:39:26.967Z,99.90
2018-09-28T10:41:58.084Z,99.90
2018-09-28T10:44:29.894Z,99.90
2018-09-28T10:47:01.012Z,99.90
2018-09-28T10:49:32.028Z,99.90
2018-09-28T10:52:03.601Z,99.30
2018-09-28T10:54:34.593Z,99.50
2018-09-28T10:57:05.255Z,99.30
2018-09-28T10:59:36.627Z,99.20
2018-09-28T11:02:07.634Z,98.40
2018-09-28T11:04:39.168Z,98.20
2018-09-28T11:07:10.371Z,98.20
2018-09-28T11:09:41.039Z,97.40
2018-09-28T11:12:11.627Z,97.50
2018-09-28T11:14:42.307Z,97.40
2018-09-28T11:17:12.987Z,97.00
2018-09-28T11:19:43.610Z,96.90
2018-09-28T11:22:15.229Z,96.40
2018-09-28T11:24:46.099Z,96.70
2018-09-28T11:27:16.828Z,96.80
2018-09-28T11:29:47.518Z,96.90
2018-09-28T11:32:18.576Z,97.40
2018-09-28T11:34:49.281Z,96.50
2018-09-28T11:37:19.888Z,97.00
2018-09-28T11:39:51.016Z,96.30
2018-09-28T11:42:22.123Z,95.10
2018-09-28T11:44:53.563Z,95.10
2018-09-28T11:47:24.158Z,95.50
2018-09-28T11:49:54.839Z,94.60
2018-09-28T11:52:26.091Z,94.20
2018-09-28T11:54:56.861Z,94.40
2018-09-28T11:57:27.583Z,93.40
2018-09-28T11:59:58.200Z,93.30
2018-09-28T12:02:28.911Z,93.00
2018-09-28T12:04:59.551Z,93.30
2018-09-28T12:07:30.242Z,92.80
2018-09-28T12:10:01.013Z,92.80
2018-09-28T12:12:31.664Z,93.50
2018-09-28T12:15:02.300Z,93.20
2018-09-28T12:17:33.389Z,92.50
2018-09-28T12:20:04.679Z,92.50
2018-09-28T12:22:35.676Z,92.40
2018-09-28T12:25:06.731Z,92.20
2018-09-28T12:27:38.430Z,91.70
2018-09-28T12:30:09.947Z,91.40
2018-09-28T12:32:41.512Z,91.70
2018-09-28T12:35:12.926Z,91.50
2018-09-28T12:37:44.379Z,91.50
2018-09-28T12:40:15.740Z,91.40
2018-09-28T12:42:46.788Z,91.30
2018-09-28T12:45:18.501Z,92.10
2018-09-28T12:47:49.779Z,92.70
2018-09-28T12:50:20.776Z,92.40
2018-09-28T12:52:51.948Z,92.70
2018-09-28T12:55:23.453Z,92.80
2018-09-28T12:57:54.605Z,92.70
2018-09-28T13:00:26.285Z,93.10
2018-09-28T13:02:57.292Z,91.60
2018-09-28T13:05:28.898Z,92.10
2018-09-28T13:08:00.093Z,91.90
2018-09-28T13:10:31.295Z,92.20
2018-09-28T13:13:02.553Z,92.40
2018-09-28T13:15:34.152Z,92.80
2018-09-28T13:18:05.484Z,92.30
2018-09-28T13:20:36.949Z,91.80
2018-09-28T13:23:08.504Z,92.00
2018-09-28T13:25:39.611Z,92.30
2018-09-28T13:28:10.795Z,91.60
2018-09-28T13:30:41.993Z,91.60
2018-09-28T13:33:13.392Z,91.30
2018-09-28T13:35:45.050Z,90.90
2018-09-28T13:38:15.739Z,90.90
2018-09-28T13:40:46.973Z,90.40
2018-09-28T13:43:18.327Z,90.40
2018-09-28T13:45:49.681Z,90.40
2018-09-28T13:48:20.973Z,90.50
2018-09-28T13:50:52.443Z,90.50
2018-09-28T13:53:23.669Z,90.40
2018-09-28T13:55:54.341Z,90.40
2018-09-28T13:58:25.052Z,90.40
2018-09-28T14:00:55.657Z,90.50
2018-09-28T14:03:26.852Z,90.60
2018-09-28T14:05:57.483Z,90.10
2018-09-28T14:08:28.257Z,90.00
2018-09-28T14:10:58.883Z,89.90
2018-09-28T14:13:29.496Z,89.60
2018-09-28T14:16:00.528Z,88.70
2018-09-28T14:18:31.709Z,89.50
2018-09-28T14:21:03.147Z,89.70
2018-09-28T14:23:34.984Z,89.80
2018-09-28T14:26:06.260Z,88.30
2018-09-28T14:28:37.506Z,87.80
2018-09-28T14:31:08.219Z,87.70
2018-09-28T14:33:38.897Z,88.30
2018-09-28T14:36:09.590Z,89.20
2018-09-28T14:38:40.251Z,87.80
2018-09-28T14:41:11.655Z,86.60
2018-09-28T14:43:42.700Z,86.90
2018-09-28T14:46:13.359Z,87.00
2018-09-28T14:48:44.022Z,87.30
2018-09-28T14:51:14.767Z,87.60
2018-09-28T14:53:45.383Z,86.00
2018-09-28T14:56:16.072Z,86.00
2018-09-28T14:58:46.775Z,85.60
2018-09-28T15:01:17.407Z,84.80
2018-09-28T15:03:48.024Z,84.70
2018-09-28T15:06:18.733Z,83.90
2018-09-28T15:08:49.514Z,83.40
2018-09-28T15:11:20.126Z,85.00
2018-09-28T15:13:50.764Z,84.10
2018-09-28T15:16:21.459Z,84.30
2018-09-28T15:18:52.176Z,84.20
2018-09-28T15:21:22.864Z,84.20
2018-09-28T15:23:53.537Z,84.90
2018-09-28T15:26:24.163Z,84.60
2018-09-28T15:28:54.798Z,85.10
2018-09-28T15:31:25.493Z,85.70
2018-09-28T15:33:56.231Z,83.30
2018-09-28T15:36:26.911Z,81.60
2018-09-28T15:38:57.547Z,83.30
2018-09-28T15:41:28.161Z,84.20
2018-09-28T15:43:58.794Z,85.30
2018-09-28T15:46:29.436Z,85.50
2018-09-28T15:49:00.056Z,84.70
2018-09-28T15:51:30.751Z,85.00
2018-09-28T15:54:01.424Z,86.00
2018-09-28T15:56:32.069Z,85.00
2018-09-28T15:59:02.859Z,85.10
2018-09-28T16:01:33.489Z,85.60
2018-09-28T16:04:04.155Z,85.60
2018-09-28T16:06:34.795Z,85.60
2018-09-28T16:09:07.436Z,86.40
2018-09-28T16:11:38.073Z,86.30
2018-09-28T16:14:08.749Z,86.00
2018-09-28T16:16:39.387Z,85.60
2018-09-28T16:19:10.068Z,84.80
2018-09-28T16:21:41.271Z,84.90
2018-09-28T16:24:14.953Z,84.40
2018-09-28T16:26:45.957Z,85.00
2018-09-28T16:29:16.583Z,84.00
2018-09-28T16:31:47.204Z,84.40
2018-09-28T16:34:17.784Z,85.20
2018-09-28T16:36:49.422Z,85.10
2018-09-28T16:39:20.596Z,85.20
2018-09-28T16:41:52.427Z,83.30
2018-09-28T16:44:24.220Z,82.20
2018-09-28T16:46:55.463Z,81.20
2018-09-28T16:49:26.905Z,81.90
2018-09-28T16:51:58.108Z,81.90
2018-09-28T16:54:29.430Z,82.60
2018-09-28T16:57:00.914Z,81.30
2018-09-28T16:59:32.195Z,81.20
2018-09-28T17:02:03.260Z,82.20
2018-09-28T17:04:34.589Z,82.00
2018-09-28T17:07:05.886Z,81.50
2018-09-28T17:09:37.183Z,81.80
2018-09-28T17:12:08.663Z,82.40
2018-09-28T17:14:39.950Z,83.70
2018-09-28T17:17:11.030Z,84.70
2018-09-28T17:19:42.275Z,84.70
2018-09-28T17:22:13.440Z,85.10
2018-09-28T17:24:44.561Z,85.80
2018-09-28T17:27:15.908Z,85.80
2018-09-28T17:29:47.103Z,86.20
2018-09-28T17:32:18.311Z,86.70
2018-09-28T17:34:50.518Z,87.40
2018-09-28T17:37:21.838Z,87.80
2018-09-28T17:39:53.064Z,88.30
2018-09-28T17:42:24.449Z,88.60
2018-09-28T17:44:55.664Z,89.10
2018-09-28T17:47:26.804Z,89.40
2018-09-28T17:49:57.803Z,89.70
2018-09-28T17:52:29.000Z,90.00
2018-09-28T17:55:00.027Z,90.20
2018-09-28T17:57:31.394Z,90.10
2018-09-28T18:00:02.444Z,90.50
2018-09-28T18:02:33.764Z,90.70
2018-09-28T18:05:05.084Z,90.70
2018-09-28T18:07:36.259Z,90.80
2018-09-28T18:10:07.764Z,90.90
2018-09-28T18:12:38.948Z,90.80
2018-09-28T18:15:10.204Z,91.10
2018-09-28T18:17:41.528Z,91.40
2018-09-28T18:20:12.638Z,91.40
2018-09-28T18:22:44.188Z,91.60
2018-09-28T18:25:15.505Z,91.70
2018-09-28T18:30:29.459Z,91.80
2018-09-28T18:33:01.328Z,91.90
2018-09-28T18:35:32.638Z,92.10
2018-09-28T18:38:03.835Z,92.20
2018-09-28T18:40:34.924Z,92.40
2018-09-28T18:43:06.051Z,92.70
2018-09-28T18:45:37.476Z,92.70
2018-09-28T18:48:08.663Z,93.00
2018-09-28T18:50:40.019Z,92.80
2018-09-28T18:53:11.263Z,92.90
2018-09-28T18:55:42.342Z,93.10
2018-09-28T18:58:12.940Z,93.10
2018-09-28T19:00:44.418Z,93.30
2018-09-28T19:03:16.064Z,93.40
2018-09-28T19:05:47.701Z,93.50
2018-09-28T19:08:18.741Z,93.70
2018-09-28T19:10:49.967Z,93.80
2018-09-28T19:13:21.113Z,94.20
2018-09-28T19:15:52.437Z,94.00
2018-09-28T19:18:23.967Z,94.20
2018-09-28T19:20:55.316Z,94.40
2018-09-28T19:23:26.660Z,94.50
2018-09-28T19:25:57.720Z,94.60
2018-09-28T19:28:29.020Z,94.70
2018-09-28T19:31:00.262Z,94.90
2018-09-28T19:33:31.475Z,95.00
2018-09-28T19:36:02.448Z,95.10
2018-09-28T19:38:33.808Z,95.10
2018-09-28T19:41:04.891Z,95.30
2018-09-28T19:43:36.048Z,95.40
2018-09-28T19:46:07.481Z,95.60
2018-09-28T19:48:38.781Z,95.70
2018-09-28T19:51:10.623Z,95.80
2018-09-28T19:53:42.030Z,96.00
2018-09-28T19:56:13.341Z,96.10
2018-09-28T19:58:44.525Z,96.30
2018-09-28T20:01:16.041Z,96.50
2018-09-28T20:03:47.319Z,96.50
2018-09-28T20:06:18.559Z,96.90
2018-09-28T20:08:49.717Z,97.00
2018-09-28T20:11:20.908Z,97.20
2018-09-28T20:13:52.270Z,97.30
2018-09-28T20:16:23.268Z,97.50
2018-09-28T20:18:54.267Z,97.60
2018-09-28T20:21:25.792Z,97.70
2018-09-28T20:23:56.929Z,97.80
2018-09-28T20:26:28.032Z,97.80
2018-09-28T20:28:59.039Z,98.10
2018-09-28T20:31:30.233Z,98.10
2018-09-28T20:34:01.687Z,98.30
2018-09-28T20:36:32.976Z,98.40
2018-09-28T20:39:05.246Z,98.40
2018-09-28T20:41:36.652Z,98.60
2018-09-28T20:44:08.400Z,98.70
2018-09-28T20:46:39.535Z,99.10
2018-09-28T20:49:10.898Z,99.30
2018-09-28T20:51:42.036Z,99.30
2018-09-28T20:54:13.583Z,99.20
2018-09-28T20:56:44.690Z,99.40
2018-09-28T20:59:15.873Z,99.70
2018-09-28T21:01:46.876Z,99.80
2018-09-28T21:04:18.060Z,99.90
2018-09-28T21:06:49.071Z,99.90
2018-09-28T21:09:20.045Z,99.90
2018-09-28T21:11:51.232Z,99.90
2018-09-28T21:14:22.439Z,99.90
2018-09-28T21:16:53.472Z,99.90
2018-09-28T21:19:25.089Z,99.90
2018-09-28T21:21:56.445Z,99.90
2018-09-28T21:24:28.134Z,99.90
2018-09-28T21:26:59.380Z,99.90
2018-09-28T21:29:30.341Z,99.90
2018-09-28T21:32:01.359Z,99.90
2018-09-28T21:34:33.235Z,99.90
2018-09-28T21:37:04.384Z,99.90
2018-09-28T21:39:35.972Z,99.90
2018-09-28T21:42:07.595Z,99.90
2018-09-28T21:44:38.691Z,99.90
2018-09-28T21:47:10.198Z,99.90
2018-09-28T21:49:41.524Z,99.90
2018-09-28T21:52:12.975Z,99.90
2018-09-28T21:54:44.807Z,99.90
2018-09-28T21:57:15.847Z,99.90
2018-09-28T21:59:47.023Z,99.90
2018-09-28T22:02:18.042Z,99.90
2018-09-28T22:04:49.026Z,99.90
2018-09-28T22:07:20.248Z,99.90
2018-09-28T22:09:51.909Z,99.90
2018-09-28T22:12:23.008Z,99.90
2018-09-28T22:14:53.995Z,99.90
2018-09-28T22:17:25.647Z,99.90
2018-09-28T22:19:57.420Z,99.90
2018-09-28T22:22:28.711Z,99.90
2018-09-28T22:25:00.169Z,99.90
2018-09-28T22:27:31.510Z,99.90
2018-09-28T22:30:02.504Z,99.90
2018-09-28T22:32:33.988Z,99.90
2018-09-28T22:35:05.471Z,99.90
2018-09-28T22:37:36.690Z,99.90
2018-09-28T22:40:07.919Z,99.90
2018-09-28T22:42:39.718Z,99.90
2018-09-28T22:45:11.045Z,99.90
2018-09-28T22:47:42.042Z,99.90
2018-09-28T22:50:13.059Z,99.90
2018-09-28T22:52:44.392Z,99.90
2018-09-28T22:55:15.723Z,99.90
2018-09-28T22:57:47.021Z,99.90
2018-09-28T23:00:18.367Z,99.90
2018-09-28T23:02:49.379Z,99.90
2018-09-28T23:05:20.412Z,99.90
2018-09-28T23:07:52.055Z,99.90
2018-09-28T23:10:23.328Z,99.90
2018-09-28T23:12:54.571Z,99.90
2018-09-28T23:15:25.748Z,99.90
2018-09-28T23:17:57.204Z,99.90
2018-09-28T23:20:28.356Z,99.90
2018-09-28T23:22:59.488Z,99.90
2018-09-28T23:25:30.731Z,99.90
2018-09-28T23:28:02.561Z,99.90
2018-09-28T23:30:33.861Z,99.90
2018-09-28T23:33:05.251Z,99.90
2018-09-28T23:35:36.259Z,99.90
2018-09-28T23:38:07.479Z,99.90
2018-09-28T23:40:38.672Z,99.90
2018-09-28T23:43:10.296Z,99.90
2018-09-28T23:45:41.623Z,99.90
2018-09-28T23:48:13.290Z,99.90
2018-09-28T23:50:44.601Z,99.90
2018-09-28T23:53:15.838Z,99.90
2018-09-28T23:55:47.197Z,99.90
2018-09-28T23:58:18.540Z,99.90
